Time;durP1;ratioP1;P1;durP2;ratioP2;P2;SDS_P1;SDS_P2;PMS_P1;PMS_P2;Temp;Humidity;BMP_temperature;BMP_pressure;BME280_temperature;BME280_humidity;BME280_pressure;Samples;Min_cycle;Max_cycle;Signal;HPM_P1;HPM_P2
2022/01/02 00:00:42;;;;;;;11.35;5.53;;;11.30;99.90;;;;;;5016238;28;20058;-85
2022/01/02 00:03:08;;;;;;;13.05;5.22;;;11.20;99.90;;;;;;5049436;28;20045;-85
2022/01/02 00:05:38;;;;;;;12.93;4.05;;;11.20;99.90;;;;;;5049362;28;20117;-81
2022/01/02 00:08:08;;;;;;;10.88;6.05;;;11.20;99.90;;;;;;5016247;28;20136;-85
2022/01/02 00:10:47;;;;;;;8.60;3.90;;;11.20;99.90;;;;;;5049634;28;20045;-84
2022/01/02 00:13:31;;;;;;;11.75;5.57;;;11.20;99.90;;;;;;5032738;28;20099;-84
2022/01/02 00:16:03;;;;;;;11.65;5.85;;;11.20;99.90;;;;;;5016099;28;20053;-84
2022/01/02 00:18:34;;;;;;;8.30;4.97;;;11.30;99.90;;;;;;5016306;28;20045;-81
2022/01/02 00:21:03;;;;;;;9.23;4.38;;;11.20;99.90;;;;;;5032810;28;20511;-81
2022/01/02 00:23:33;;;;;;;11.25;5.35;;;11.20;99.90;;;;;;5032594;28;20040;-85
2022/01/02 00:26:05;;;;;;;8.95;5.25;;;11.20;99.90;;;;;;5048951;28;20152;-84
2022/01/02 00:28:32;;;;;;;7.85;4.82;;;11.20;99.90;;;;;;5032291;28;20122;-85
2022/01/02 00:30:58;;;;;;;11.27;5.70;;;11.20;99.90;;;;;;5032240;28;20042;-84
2022/01/02 00:33:25;;;;;;;13.27;6.45;;;11.20;99.90;;;;;;5048671;28;20046;-81
2022/01/02 00:35:51;;;;;;;9.50;3.53;;;11.20;99.90;;;;;;5032116;28;20042;-81
2022/01/02 00:38:22;;;;;;;9.20;4.35;;;11.20;99.90;;;;;;5032086;28;20048;-81
2022/01/02 00:40:50;;;;;;;6.28;2.83;;;11.20;99.90;;;;;;5015749;28;20046;-81
2022/01/02 00:43:25;;;;;;;13.70;5.28;;;11.20;99.90;;;;;;5048831;28;20049;-81
2022/01/02 00:45:52;;;;;;;11.02;5.50;;;11.20;99.90;;;;;;5048597;28;20053;-85
2022/01/02 00:48:34;;;;;;;11.25;5.95;;;11.20;99.90;;;;;;5048709;28;20168;-81
2022/01/02 00:51:03;;;;;;;14.18;6.50;;;11.20;99.90;;;;;;5015686;28;20527;-81
2022/01/02 00:53:34;;;;;;;15.45;6.65;;;11.20;99.90;;;;;;5015758;28;20041;-84
2022/01/02 00:56:01;;;;;;;18.05;6.82;;;11.20;99.90;;;;;;5031914;28;20142;-85
2022/01/02 00:58:45;;;;;;;10.55;5.05;;;11.20;99.90;;;;;;5048554;28;20435;-84
2022/01/02 01:01:15;;;;;;;14.73;6.50;;;11.10;99.90;;;;;;5031765;28;20132;-82
2022/01/02 01:03:41;;;;;;;12.63;6.82;;;11.10;99.90;;;;;;5031724;28;20067;-80
2022/01/02 01:06:09;;;;;;;14.60;5.47;;;11.10;99.90;;;;;;5032074;28;20514;-84
2022/01/02 01:08:40;;;;;;;9.48;4.43;;;11.10;99.90;;;;;;5031846;28;20049;-84
2022/01/02 01:11:10;;;;;;;13.32;5.93;;;11.10;99.90;;;;;;5048333;28;20045;-81
2022/01/02 01:13:36;;;;;;;12.20;5.38;;;11.10;99.90;;;;;;5015143;28;20087;-82
2022/01/02 01:16:03;;;;;;;9.52;5.00;;;11.10;99.90;;;;;;5031906;28;20080;-84
2022/01/02 01:18:29;;;;;;;11.80;5.53;;;11.30;99.90;;;;;;5048505;28;20503;-81
2022/01/02 01:20:55;;;;;;;7.32;3.15;;;11.10;99.90;;;;;;5031563;28;20100;-84
2022/01/02 01:23:21;;;;;;;12.10;5.32;;;11.10;99.90;;;;;;5048227;28;20085;-85
2022/01/02 01:25:50;;;;;;;10.40;5.68;;;11.10;99.90;;;;;;5048139;28;20488;-84
2022/01/02 01:28:17;;;;;;;13.02;7.20;;;11.10;99.90;;;;;;5031868;28;20498;-82
2022/01/02 01:30:44;;;;;;;16.63;7.00;;;11.10;99.90;;;;;;5031645;28;20049;-85
2022/01/02 01:33:10;;;;;;;20.15;5.78;;;11.10;99.90;;;;;;5031409;28;20045;-82
2022/01/02 01:35:36;;;;;;;12.52;6.55;;;11.10;99.90;;;;;;5031675;28;20496;-84
2022/01/02 01:38:02;;;;;;;10.77;5.82;;;11.10;99.90;;;;;;5047966;28;20052;-81
2022/01/02 01:40:33;;;;;;;15.30;6.63;;;11.10;99.90;;;;;;5014884;28;20128;-84
2022/01/02 01:43:02;;;;;;;7.70;3.75;;;11.10;99.90;;;;;;5048010;28;20142;-85
2022/01/02 01:45:28;;;;;;;18.08;8.23;;;11.10;99.90;;;;;;5031209;28;20088;-82
2022/01/02 01:47:56;;;;;;;11.05;5.78;;;11.10;99.90;;;;;;5031271;28;20041;-85
2022/01/02 01:50:25;;;;;;;11.48;6.10;;;11.10;99.90;;;;;;5047835;28;20052;-82
2022/01/02 01:52:51;;;;;;;10.70;4.53;;;11.10;99.90;;;;;;5051368;28;20113;-84
2022/01/02 01:55:17;;;;;;;13.43;6.07;;;11.10;99.90;;;;;;5018707;28;20052;-82
2022/01/02 01:57:43;;;;;;;15.10;6.93;;;11.10;99.90;;;;;;5035143;28;20041;-81
2022/01/02 02:00:15;;;;;;;12.65;6.10;;;11.10;99.90;;;;;;5034924;28;20148;-85
2022/01/02 02:02:42;;;;;;;6.88;3.53;;;11.10;99.90;;;;;;5018503;28;20128;-81
2022/01/02 02:05:09;;;;;;;8.25;5.60;;;11.00;99.90;;;;;;5034940;28;20068;-84
2022/01/02 02:07:40;;;;;;;18.27;7.70;;;11.00;99.90;;;;;;5051965;28;20520;-83
2022/01/02 02:10:13;;;;;;;14.00;6.18;;;11.00;99.90;;;;;;5035255;28;20053;-81
2022/01/02 02:12:45;;;;;;;11.23;7.25;;;10.90;99.90;;;;;;5051654;28;20038;-81
2022/01/02 02:15:12;;;;;;;15.20;7.05;;;10.90;99.90;;;;;;5051391;28;20050;-85
2022/01/02 02:17:38;;;;;;;15.43;8.13;;;11.00;99.90;;;;;;5034887;28;20052;-84
2022/01/02 02:20:15;;;;;;;17.75;9.20;;;10.80;99.90;;;;;;5051476;28;20045;-84
2022/01/02 02:22:45;;;;;;;17.60;7.85;;;10.80;99.90;;;;;;5034671;28;20046;-84
2022/01/02 02:25:16;;;;;;;16.70;8.55;;;10.70;99.90;;;;;;5051209;28;20099;-84
2022/01/02 02:27:53;;;;;;;7.22;4.68;;;10.80;99.90;;;;;;5018021;28;20045;-81
2022/01/02 02:30:19;;;;;;;16.75;8.35;;;10.80;99.90;;;;;;5034870;28;20041;-82
2022/01/02 02:32:45;;;;;;;18.77;8.13;;;10.80;99.90;;;;;;5018026;28;20045;-81
2022/01/02 02:35:11;;;;;;;14.57;7.35;;;10.70;99.90;;;;;;5034497;28;20069;-84
2022/01/02 02:37:42;;;;;;;11.90;6.32;;;10.70;99.90;;;;;;5034772;28;20138;-85
2022/01/02 02:40:09;;;;;;;19.38;9.50;;;10.70;99.90;;;;;;5034706;28;20093;-83
2022/01/02 02:51:17;;;;;;;29.42;12.65;;;10.60;99.90;;;;;;5050966;28;20114;-84
2022/01/02 02:53:45;;;;;;;16.48;8.68;;;10.60;99.90;;;;;;5051097;28;20392;-80
2022/01/02 02:56:20;;;;;;;18.85;8.57;;;10.60;99.90;;;;;;5034416;28;20503;-80
2022/01/02 02:58:49;;;;;;;20.45;9.15;;;10.60;99.90;;;;;;5017567;28;20049;-84
2022/01/02 03:01:17;;;;;;;26.33;11.23;;;10.60;99.90;;;;;;5034127;28;20079;-80
2022/01/02 03:03:44;;;;;;;24.38;13.18;;;10.60;99.90;;;;;;5050111;28;20046;-81
2022/01/02 03:06:10;;;;;;;24.98;12.13;;;10.50;99.90;;;;;;5050518;28;20061;-84
2022/01/02 03:08:37;;;;;;;23.20;12.38;;;10.50;99.90;;;;;;5033832;28;20052;-84
2022/01/02 03:11:06;;;;;;;21.45;11.25;;;10.50;99.90;;;;;;5050436;28;20051;-81
2022/01/02 03:13:32;;;;;;;26.45;10.55;;;10.50;99.90;;;;;;5034060;28;20048;-80
2022/01/02 03:15:57;;;;;;;17.75;9.63;;;10.50;99.90;;;;;;5033822;28;20049;-84
2022/01/02 03:18:23;;;;;;;29.20;13.85;;;10.50;99.90;;;;;;5033660;28;20042;-85
2022/01/02 03:20:49;;;;;;;27.08;13.75;;;10.50;99.90;;;;;;5000891;28;20041;-81
2022/01/02 03:23:14;;;;;;;15.40;9.13;;;10.50;99.90;;;;;;5050165;28;20500;-81
2022/01/02 03:25:40;;;;;;;17.08;10.77;;;10.50;99.90;;;;;;5033513;28;20068;-81
2022/01/02 03:28:06;;;;;;;24.75;13.23;;;10.40;99.90;;;;;;5050391;28;20476;-85
2022/01/02 03:30:32;;;;;;;10.60;6.55;;;10.50;99.90;;;;;;5050085;28;20046;-84
2022/01/02 03:32:57;;;;;;;15.90;10.02;;;10.40;99.90;;;;;;5033725;28;20496;-80
2022/01/02 03:35:23;;;;;;;29.98;15.82;;;10.40;99.90;;;;;;5000585;28;20052;-81
2022/01/02 03:37:50;;;;;;;24.38;13.20;;;10.40;99.90;;;;;;5033326;28;20049;-81
2022/01/02 03:40:16;;;;;;;22.35;10.38;;;10.40;99.90;;;;;;5050417;28;20124;-85
2022/01/02 03:42:42;;;;;;;18.88;11.45;;;10.40;99.90;;;;;;5033208;28;20120;-85
2022/01/02 03:45:09;;;;;;;30.10;14.80;;;10.40;99.90;;;;;;5050045;28;20483;-81
2022/01/02 03:47:35;;;;;;;26.58;14.68;;;10.40;99.90;;;;;;5049835;28;20048;-85
2022/01/02 03:50:02;;;;;;;28.92;15.07;;;10.40;99.90;;;;;;5049853;28;20474;-85
2022/01/02 03:52:27;;;;;;;27.85;15.15;;;10.40;99.90;;;;;;5033438;28;20048;-81
2022/01/02 03:54:53;;;;;;;32.65;15.13;;;10.40;99.90;;;;;;5032877;28;20500;-85
2022/01/02 03:57:19;;;;;;;27.08;13.48;;;10.30;99.90;;;;;;5049944;28;20488;-85
2022/01/02 03:59:45;;;;;;;22.35;12.10;;;10.40;99.90;;;;;;5049651;28;20049;-84
2022/01/02 04:02:11;;;;;;;28.45;16.33;;;10.40;99.90;;;;;;5049735;28;20408;-81
2022/01/02 04:04:37;;;;;;;28.30;14.70;;;10.40;99.90;;;;;;5016552;28;20034;-86
2022/01/02 04:07:04;;;;;;;25.58;13.55;;;10.40;99.90;;;;;;5049519;28;20085;-85
2022/01/02 04:09:29;;;;;;;27.70;14.07;;;10.50;99.90;;;;;;5016756;28;20071;-86
2022/01/02 04:11:55;;;;;;;30.77;16.55;;;10.40;99.90;;;;;;5032704;28;20188;-81
2022/01/02 04:14:21;;;;;;;26.83;13.18;;;10.40;99.90;;;;;;5015373;28;20080;-85
2022/01/02 04:16:47;;;;;;;29.65;14.43;;;10.40;99.90;;;;;;5032696;28;20092;-80
2022/01/02 04:19:13;;;;;;;29.75;12.23;;;10.40;99.90;;;;;;5032612;28;20037;-84
2022/01/02 04:21:38;;;;;;;22.75;12.13;;;10.40;99.90;;;;;;5032552;28;20129;-82
2022/01/02 04:24:05;;;;;;;24.65;11.15;;;10.50;99.90;;;;;;5000019;28;20052;-81
2022/01/02 04:26:30;;;;;;;18.73;9.57;;;10.50;99.90;;;;;;5032560;28;20052;-84
2022/01/02 04:28:57;;;;;;;20.65;11.60;;;10.50;99.90;;;;;;5015925;28;20462;-81
2022/01/02 04:31:22;;;;;;;25.30;13.32;;;10.60;99.90;;;;;;5048986;28;20048;-83
2022/01/02 04:33:48;;;;;;;28.45;12.65;;;10.50;99.90;;;;;;5048929;28;20395;-84
2022/01/02 04:36:14;;;;;;;18.92;8.90;;;10.60;99.90;;;;;;5032256;28;20561;-80
2022/01/02 04:38:42;;;;;;;24.15;8.85;;;10.60;99.90;;;;;;5032202;28;20057;-81
2022/01/02 04:41:08;;;;;;;30.50;13.75;;;10.50;99.90;;;;;;5032177;28;20045;-81
2022/01/02 04:43:33;;;;;;;22.90;11.75;;;10.50;99.90;;;;;;4999297;28;20100;-86
2022/01/02 04:45:59;;;;;;;23.33;12.02;;;10.60;99.90;;;;;;5032108;28;20454;-85
2022/01/02 04:48:25;;;;;;;18.13;10.00;;;10.50;99.90;;;;;;5048844;28;20271;-81
2022/01/02 04:50:51;;;;;;;18.98;9.95;;;10.60;99.90;;;;;;5031951;28;20042;-84
2022/01/02 04:53:17;;;;;;;25.45;12.20;;;10.60;99.90;;;;;;5048806;28;20049;-81
2022/01/02 04:55:43;;;;;;;21.20;10.95;;;10.60;99.90;;;;;;5048717;28;20049;-82
2022/01/02 04:58:08;;;;;;;24.85;14.18;;;10.60;99.90;;;;;;5015382;28;20124;-86
2022/01/02 05:00:34;;;;;;;17.30;7.57;;;10.60;99.90;;;;;;5031481;28;20056;-86
2022/01/02 05:03:00;;;;;;;16.63;7.75;;;10.60;99.90;;;;;;5015564;28;20045;-87
2022/01/02 05:05:26;;;;;;;15.35;8.15;;;10.70;99.90;;;;;;5015168;28;20038;-81
2022/01/02 05:07:51;;;;;;;20.05;8.43;;;10.70;99.90;;;;;;5015293;28;20041;-81
2022/01/02 05:10:17;;;;;;;22.60;12.75;;;10.70;99.90;;;;;;5048349;28;20042;-81
2022/01/02 05:12:43;;;;;;;23.83;12.25;;;10.80;99.90;;;;;;5031709;28;20449;-86
2022/01/02 05:15:09;;;;;;;20.00;11.07;;;10.70;99.90;;;;;;4998884;28;20500;-86
2022/01/02 05:17:34;;;;;;;24.75;13.32;;;10.70;99.90;;;;;;5015259;28;20147;-81
2022/01/02 05:20:01;;;;;;;30.17;16.08;;;10.60;99.90;;;;;;5048180;28;20073;-86
2022/01/02 05:22:27;;;;;;;26.05;12.88;;;10.70;99.90;;;;;;5015202;28;20068;-81
2022/01/02 05:24:52;;;;;;;30.98;14.30;;;10.80;99.90;;;;;;5031483;28;20042;-85
2022/01/02 05:27:18;;;;;;;29.05;11.15;;;10.70;99.90;;;;;;5015150;28;20046;-81
2022/01/02 05:29:44;;;;;;;35.63;16.10;;;10.60;99.90;;;;;;5031955;28;20501;-87
2022/01/02 05:32:09;;;;;;;24.45;12.13;;;10.60;99.90;;;;;;5031843;28;20091;-81
2022/01/02 05:34:35;;;;;;;21.38;9.85;;;10.60;99.90;;;;;;5031464;28;20041;-81
2022/01/02 05:37:01;;;;;;;25.67;11.43;;;10.70;99.90;;;;;;4998739;28;20037;-86
2022/01/02 05:39:27;;;;;;;22.20;10.32;;;10.70;99.90;;;;;;5031434;28;20144;-81
2022/01/02 05:41:52;;;;;;;33.75;10.60;;;10.70;99.90;;;;;;4998662;28;20507;-81
2022/01/02 05:44:18;;;;;;;26.70;10.27;;;10.70;99.90;;;;;;4998640;28;20088;-86
2022/01/02 05:46:45;;;;;;;28.52;12.10;;;10.70;99.90;;;;;;5031378;28;20037;-86
2022/01/02 05:49:11;;;;;;;29.13;10.35;;;10.80;99.90;;;;;;5031321;28;20107;-86
2022/01/02 05:51:37;;;;;;;24.05;10.50;;;10.80;99.90;;;;;;5047956;28;20056;-86
2022/01/02 05:54:03;;;;;;;25.65;8.70;;;10.70;99.90;;;;;;5031309;28;20050;-81
2022/01/02 05:56:30;;;;;;;22.27;8.13;;;10.80;99.90;;;;;;5015190;28;20455;-87
2022/01/02 05:58:56;;;;;;;21.90;8.10;;;10.80;99.90;;;;;;5014743;28;20072;-81
2022/01/02 06:01:22;;;;;;;27.70;9.98;;;10.70;99.90;;;;;;5014746;28;20508;-81
2022/01/02 06:03:48;;;;;;;29.77;8.68;;;10.90;99.90;;;;;;5014701;28;20084;-81
2022/01/02 06:06:14;;;;;;;26.27;8.30;;;10.80;99.90;;;;;;5014680;28;20049;-81
2022/01/02 06:08:40;;;;;;;15.05;5.72;;;10.80;99.90;;;;;;5031177;28;20495;-86
2022/01/02 06:11:05;;;;;;;19.75;6.93;;;10.90;99.90;;;;;;5014721;28;20415;-86
2022/01/02 06:13:31;;;;;;;9.75;3.33;;;10.90;99.90;;;;;;5030957;28;20045;-86
2022/01/02 06:15:57;;;;;;;13.73;5.35;;;11.00;99.90;;;;;;5047741;28;20427;-83
2022/01/02 06:18:22;;;;;;;10.70;4.63;;;10.90;99.90;;;;;;5014545;28;20128;-86
2022/01/02 06:20:48;;;;;;;11.68;5.07;;;11.00;99.90;;;;;;5031642;28;20427;-81
2022/01/02 06:23:15;;;;;;;12.93;5.18;;;11.00;99.90;;;;;;4998556;28;20049;-86
2022/01/02 06:25:45;;;;;;;11.85;5.40;;;11.00;99.90;;;;;;4998473;28;20042;-81
2022/01/02 06:28:12;;;;;;;16.58;5.47;;;11.00;99.90;;;;;;5014439;28;20048;-81
2022/01/02 06:30:37;;;;;;;20.10;5.63;;;11.00;99.90;;;;;;5030945;28;20045;-81
2022/01/02 06:33:03;;;;;;;14.48;5.22;;;11.00;99.90;;;;;;4998155;28;20407;-86
2022/01/02 06:35:32;;;;;;;6.32;3.08;;;11.10;99.90;;;;;;5047573;28;20084;-85
2022/01/02 06:37:58;;;;;;;13.85;4.78;;;11.00;99.90;;;;;;5049472;28;20110;-86
2022/01/02 06:40:26;;;;;;;15.13;5.95;;;11.10;99.90;;;;;;5051385;28;20492;-81
2022/01/02 06:42:52;;;;;;;10.85;4.20;;;11.10;99.90;;;;;;5018050;28;20042;-81
2022/01/02 06:45:19;;;;;;;25.50;6.60;;;11.10;99.90;;;;;;5017704;28;20124;-81
2022/01/02 06:47:45;;;;;;;18.15;6.60;;;11.10;99.90;;;;;;5034599;28;20447;-86
2022/01/02 06:50:12;;;;;;;12.30;3.22;;;11.20;99.90;;;;;;5034269;28;20060;-81
2022/01/02 06:52:38;;;;;;;11.65;4.97;;;11.10;99.90;;;;;;5018085;28;20096;-81
2022/01/02 06:55:05;;;;;;;5.65;2.58;;;11.10;99.90;;;;;;5034397;28;20046;-81
2022/01/02 06:57:31;;;;;;;9.85;3.35;;;11.10;99.90;;;;;;5050821;28;20042;-80
2022/01/02 06:59:57;;;;;;;10.10;4.38;;;11.30;99.90;;;;;;5050729;28;20064;-80
2022/01/02 07:02:23;;;;;;;13.35;5.40;;;11.20;99.90;;;;;;5001355;28;20136;-83
2022/01/02 07:04:48;;;;;;;13.88;4.10;;;11.10;99.90;;;;;;5033994;28;20045;-86
2022/01/02 07:07:14;;;;;;;11.20;4.70;;;11.20;99.90;;;;;;5017411;28;20045;-81
2022/01/02 07:09:39;;;;;;;17.08;4.60;;;11.20;99.90;;;;;;5017305;28;20072;-86
2022/01/02 07:12:06;;;;;;;13.85;4.75;;;11.20;99.90;;;;;;5033927;28;20046;-81
2022/01/02 07:14:32;;;;;;;15.00;4.93;;;11.20;99.90;;;;;;5034105;28;20561;-84
2022/01/02 07:16:58;;;;;;;8.80;3.58;;;11.20;99.90;;;;;;5033913;28;20124;-81
2022/01/02 07:19:24;;;;;;;12.88;3.58;;;11.20;99.90;;;;;;5033770;28;20048;-85
2022/01/02 07:21:51;;;;;;;8.55;3.67;;;11.20;99.90;;;;;;5033614;28;20053;-85
2022/01/02 07:24:18;;;;;;;10.13;3.95;;;11.20;99.90;;;;;;5050282;28;20053;-82
2022/01/02 07:26:44;;;;;;;7.63;3.05;;;11.30;99.90;;;;;;5033693;28;20128;-86
2022/01/02 07:29:10;;;;;;;12.57;4.05;;;11.30;99.90;;;;;;5050154;28;20065;-80
2022/01/02 07:31:37;;;;;;;4.88;2.60;;;11.30;99.90;;;;;;5050102;28;20102;-81
2022/01/02 07:34:03;;;;;;;5.38;2.42;;;11.30;99.90;;;;;;5033373;28;20038;-82
2022/01/02 07:36:29;;;;;;;7.30;2.88;;;11.30;99.90;;;;;;5033721;28;20146;-85
2022/01/02 07:38:55;;;;;;;10.82;3.67;;;11.30;99.90;;;;;;5049990;28;20077;-82
2022/01/02 07:41:21;;;;;;;11.20;3.35;;;11.40;99.90;;;;;;5016775;28;20416;-85
2022/01/02 07:43:47;;;;;;;12.23;3.33;;;11.30;99.90;;;;;;5049886;28;20530;-84
2022/01/02 07:46:12;;;;;;;12.10;3.22;;;11.40;99.90;;;;;;5049779;28;20055;-86
2022/01/02 07:48:38;;;;;;;11.50;4.47;;;11.30;99.90;;;;;;5033370;28;20099;-81
2022/01/02 07:51:05;;;;;;;9.35;2.97;;;11.30;99.90;;;;;;5016928;28;20056;-83
2022/01/02 07:53:31;;;;;;;9.55;2.97;;;11.30;99.90;;;;;;5016492;28;20053;-85
2022/01/02 07:55:57;;;;;;;15.40;4.22;;;11.30;99.90;;;;;;5033053;28;20046;-85
2022/01/02 07:58:23;;;;;;;9.52;2.50;;;11.30;99.90;;;;;;5032890;28;20037;-81
2022/01/02 08:00:50;;;;;;;12.38;4.40;;;11.30;99.90;;;;;;5032791;28;20415;-82
2022/01/02 08:03:16;;;;;;;11.30;1.77;;;11.30;99.90;;;;;;5016447;28;20056;-85
2022/01/02 08:05:43;;;;;;;7.80;2.45;;;11.20;99.90;;;;;;5032687;28;20053;-81
2022/01/02 08:08:09;;;;;;;10.68;4.43;;;11.20;99.90;;;;;;5049772;28;20049;-86
2022/01/02 08:10:34;;;;;;;6.97;2.38;;;11.20;99.90;;;;;;5032763;28;20487;-84
2022/01/02 08:13:00;;;;;;;11.57;2.78;;;11.20;99.90;;;;;;5049393;28;20103;-81
2022/01/02 08:15:26;;;;;;;5.13;2.33;;;11.20;99.90;;;;;;5016451;28;20491;-87
2022/01/02 08:17:52;;;;;;;5.32;1.75;;;11.10;99.90;;;;;;5032632;28;20083;-81
2022/01/02 08:20:18;;;;;;;6.63;2.78;;;11.10;99.90;;;;;;5032540;28;20038;-81
2022/01/02 08:22:44;;;;;;;7.20;2.60;;;11.20;99.90;;;;;;5015958;28;20046;-81
2022/01/02 08:25:10;;;;;;;10.07;3.45;;;11.10;99.90;;;;;;5032537;28;20059;-81
2022/01/02 08:27:36;;;;;;;12.80;3.00;;;11.10;99.90;;;;;;5016223;28;20048;-86
2022/01/02 08:30:03;;;;;;;13.27;3.35;;;11.00;99.90;;;;;;5032734;28;20395;-82
2022/01/02 08:32:29;;;;;;;8.80;3.05;;;11.00;99.90;;;;;;5049266;28;20051;-82
2022/01/02 08:34:55;;;;;;;2.70;1.48;;;11.00;99.90;;;;;;5049110;28;20041;-82
2022/01/02 08:37:20;;;;;;;5.15;2.45;;;11.00;99.90;;;;;;5015908;28;20100;-85
2022/01/02 08:39:46;;;;;;;8.02;3.10;;;11.00;99.90;;;;;;5032587;28;20056;-85
2022/01/02 08:42:13;;;;;;;9.60;3.63;;;11.00;99.90;;;;;;5015676;28;20045;-81
2022/01/02 08:44:39;;;;;;;5.25;2.25;;;11.00;99.90;;;;;;5032453;28;20480;-86
2022/01/02 08:47:06;;;;;;;6.88;3.90;;;10.90;99.90;;;;;;5015658;28;20128;-83
2022/01/02 08:49:32;;;;;;;7.47;2.70;;;10.90;99.90;;;;;;5015903;28;20056;-86
2022/01/02 08:51:58;;;;;;;2.95;1.50;;;10.90;99.90;;;;;;5032026;28;20045;-86
2022/01/02 08:54:24;;;;;;;6.32;2.60;;;10.90;99.90;;;;;;5031828;28;20416;-85
2022/01/02 08:56:50;;;;;;;3.00;1.23;;;10.90;99.90;;;;;;5048941;28;20565;-84
2022/01/02 08:59:17;;;;;;;7.80;2.08;;;10.90;99.90;;;;;;5032117;28;20392;-81
2022/01/02 09:01:43;;;;;;;6.13;2.58;;;10.90;99.90;;;;;;5015172;28;20566;-81
2022/01/02 09:04:09;;;;;;;9.75;2.20;;;10.90;99.90;;;;;;5015684;28;20523;-86
2022/01/02 09:06:35;;;;;;;4.70;2.00;;;10.90;99.90;;;;;;5031679;28;20045;-85
2022/01/02 09:09:01;;;;;;;4.85;2.47;;;10.90;99.90;;;;;;5015689;28;20060;-86
2022/01/02 09:11:27;;;;;;;15.68;1.80;;;10.80;99.90;;;;;;5015370;28;20191;-87
2022/01/02 09:13:53;;;;;;;3.03;1.63;;;10.90;99.90;;;;;;5015036;28;20574;-86
2022/01/02 09:16:18;;;;;;;5.45;3.10;;;10.80;99.90;;;;;;5031782;28;20546;-83
2022/01/02 09:18:44;;;;;;;5.47;2.60;;;10.80;99.90;;;;;;5031750;28;20076;-85
2022/01/02 09:21:10;;;;;;;2.58;1.48;;;10.80;99.90;;;;;;5031659;28;20071;-85
2022/01/02 09:23:36;;;;;;;4.30;2.40;;;10.80;99.90;;;;;;5031808;28;20045;-86
2022/01/02 09:26:02;;;;;;;7.07;3.22;;;10.80;99.90;;;;;;5048041;28;20369;-85
2022/01/02 09:28:28;;;;;;;9.25;4.43;;;10.70;99.90;;;;;;5048175;28;20504;-86
2022/01/02 09:30:54;;;;;;;9.13;3.30;;;10.70;99.90;;;;;;5031597;28;20136;-81
2022/01/02 09:33:19;;;;;;;9.60;4.15;;;10.70;99.90;;;;;;5031522;28;20503;-84
2022/01/02 09:35:45;;;;;;;5.45;3.05;;;10.70;99.90;;;;;;5047881;28;20045;-81
2022/01/02 09:38:12;;;;;;;10.93;5.03;;;10.70;99.90;;;;;;5048307;28;20055;-87
2022/01/02 09:40:38;;;;;;;7.00;3.72;;;10.70;99.90;;;;;;5014836;28;20133;-81
2022/01/02 09:43:04;;;;;;;4.65;3.17;;;10.70;99.90;;;;;;5014916;28;20128;-87
2022/01/02 09:45:35;;;;;;;8.73;3.40;;;10.80;99.90;;;;;;5031346;28;20060;-87
2022/01/02 09:48:04;;;;;;;4.88;2.70;;;10.70;99.90;;;;;;5047860;28;20042;-86
2022/01/02 09:50:31;;;;;;;4.20;2.75;;;10.70;99.90;;;;;;5031257;28;20053;-87
2022/01/02 09:52:57;;;;;;;10.18;4.13;;;10.70;99.90;;;;;;5031275;28;20042;-87
2022/01/02 09:55:23;;;;;;;4.88;2.50;;;10.70;99.90;;;;;;5014853;28;20106;-82
2022/01/02 09:57:49;;;;;;;7.63;4.13;;;10.60;99.90;;;;;;5014701;28;20128;-80
2022/01/02 10:00:16;;;;;;;4.88;2.28;;;10.70;99.90;;;;;;5031114;28;20061;-82
2022/01/02 10:03:03;;;;;;;8.25;3.05;;;10.60;99.90;;;;;;5031159;28;20112;-81
2022/01/02 10:05:47;;;;;;;12.95;6.65;;;10.60;99.90;;;;;;5031099;28;20052;-81
2022/01/02 10:08:39;;;;;;;7.90;3.97;;;10.60;99.90;;;;;;5031530;28;20504;-86
2022/01/02 10:11:21;;;;;;;9.40;3.55;;;10.60;99.90;;;;;;5014450;28;20183;-87
2022/01/02 10:13:53;;;;;;;10.38;4.90;;;10.60;99.90;;;;;;5034690;28;20068;-87
2022/01/02 10:16:31;;;;;;;9.63;4.60;;;10.60;99.90;;;;;;5051789;28;20500;-81
2022/01/02 10:19:00;;;;;;;12.95;5.38;;;10.50;99.90;;;;;;5034851;28;20042;-85
2022/01/02 10:21:31;;;;;;;12.02;3.35;;;10.60;99.90;;;;;;5018569;28;20485;-81
2022/01/02 10:24:10;;;;;;;8.73;4.63;;;10.60;99.90;;;;;;5034841;28;20041;-85
2022/01/02 10:26:36;;;;;;;10.00;5.97;;;10.60;99.90;;;;;;5051263;28;20077;-86
2022/01/02 10:29:15;;;;;;;7.35;3.92;;;10.60;99.90;;;;;;5018306;28;20052;-87
2022/01/02 10:31:41;;;;;;;14.80;5.97;;;10.60;99.90;;;;;;5018999;28;20037;-86
2022/01/02 10:34:07;;;;;;;9.98;4.28;;;10.60;99.90;;;;;;5034616;28;20048;-87
2022/01/02 10:36:42;;;;;;;14.20;5.32;;;10.60;99.90;;;;;;5018096;28;20045;-83
2022/01/02 10:39:20;;;;;;;11.15;4.15;;;10.60;99.90;;;;;;5018332;28;20124;-87
2022/01/02 10:41:49;;;;;;;6.60;3.45;;;10.60;99.90;;;;;;5034547;28;20052;-87
2022/01/02 10:44:33;;;;;;;12.23;4.88;;;10.60;99.90;;;;;;5034454;28;20055;-82
2022/01/02 10:47:15;;;;;;;12.00;3.78;;;10.60;99.90;;;;;;5034348;28;20041;-82
2022/01/02 10:49:58;;;;;;;9.98;3.88;;;10.70;99.90;;;;;;5017976;28;20061;-81
2022/01/02 10:52:35;;;;;;;9.15;3.85;;;10.70;99.90;;;;;;5051184;28;20068;-81
2022/01/02 10:55:12;;;;;;;10.95;3.53;;;10.60;99.90;;;;;;5034399;28;20049;-87
2022/01/02 10:57:40;;;;;;;10.68;2.60;;;10.60;99.90;;;;;;5034499;28;20045;-81
2022/01/02 11:00:06;;;;;;;8.27;2.95;;;10.60;99.90;;;;;;5050473;28;20042;-87
2022/01/02 11:02:32;;;;;;;10.20;3.72;;;10.60;99.90;;;;;;5050985;28;20045;-81
2022/01/02 11:05:02;;;;;;;10.43;3.53;;;10.60;99.90;;;;;;5033973;28;20049;-87
2022/01/02 11:07:42;;;;;;;8.25;3.35;;;10.60;99.90;;;;;;5050602;28;20100;-81
2022/01/02 11:10:10;;;;;;;10.70;2.72;;;10.70;99.90;;;;;;5050522;28;20037;-81
2022/01/02 11:12:41;;;;;;;8.73;2.55;;;10.70;99.90;;;;;;5034284;28;20129;-89
2022/01/02 11:15:10;;;;;;;11.70;3.05;;;10.80;99.90;;;;;;5033893;28;20184;-82
2022/01/02 11:17:37;;;;;;;6.47;2.75;;;10.70;99.90;;;;;;5017428;28;20044;-81
2022/01/02 11:20:11;;;;;;;5.28;2.38;;;10.80;99.90;;;;;;5050435;28;20049;-81
2022/01/02 11:23:06;;;;;;;4.57;2.00;;;10.70;99.90;;;;;;5033827;28;20576;-86
2022/01/02 11:25:41;;;;;;;9.20;2.42;;;10.70;99.90;;;;;;5033724;28;20095;-81
2022/01/02 11:28:22;;;;;;;8.48;3.22;;;10.70;99.90;;;;;;5034026;28;20507;-82
2022/01/02 11:30:53;;;;;;;12.57;3.08;;;10.70;99.90;;;;;;5033549;28;20084;-81
2022/01/02 11:33:27;;;;;;;6.40;2.30;;;10.60;99.90;;;;;;5033976;28;20894;-81
2022/01/02 11:35:56;;;;;;;14.43;2.88;;;10.60;99.90;;;;;;5033762;28;20069;-81
2022/01/02 11:38:22;;;;;;;6.53;2.85;;;10.60;99.90;;;;;;5033241;28;20081;-87
2022/01/02 11:40:53;;;;;;;7.75;2.35;;;10.60;99.90;;;;;;5033293;28;20037;-87
2022/01/02 11:44:10;;;;;;;6.40;2.45;;;10.60;99.90;;;;;;5033404;28;20049;-81
2022/01/02 11:46:48;;;;;;;5.15;1.90;;;10.60;99.90;;;;;;5031017;28;20054;-88
2022/01/02 11:49:22;;;;;;;5.22;1.95;;;10.60;99.90;;;;;;5033274;28;20042;-88
2022/01/02 11:51:48;;;;;;;7.78;2.47;;;10.70;99.90;;;;;;5049781;28;20048;-82
2022/01/02 11:54:29;;;;;;;14.30;4.03;;;10.60;99.90;;;;;;5033362;28;20449;-89
2022/01/02 11:56:58;;;;;;;9.05;2.50;;;10.80;99.90;;;;;;5033421;28;20037;-85
2022/01/02 11:59:39;;;;;;;6.50;3.03;;;11.00;99.90;;;;;;5049697;28;20041;-82
2022/01/02 12:02:10;;;;;;;4.15;1.73;;;11.20;99.90;;;;;;5033080;28;20065;-89
2022/01/02 12:07:37;;;;;;;5.18;1.98;;;11.20;99.90;;;;;;5030069;28;20084;-81
2022/01/02 12:10:19;;;;;;;6.22;1.65;;;11.20;99.90;;;;;;5032923;28;20045;-87
2022/01/02 12:13:00;;;;;;;10.73;2.67;;;11.20;99.90;;;;;;5049451;28;20053;-87
2022/01/02 12:15:34;;;;;;;10.98;3.72;;;11.30;99.90;;;;;;5049355;28;20050;-81
2022/01/02 12:18:12;;;;;;;9.95;2.65;;;11.30;99.90;;;;;;5032912;28;20056;-89
2022/01/02 12:20:50;;;;;;;9.27;3.08;;;11.40;99.90;;;;;;5049259;28;20072;-83
2022/01/02 12:23:34;;;;;;;12.50;2.35;;;11.40;99.90;;;;;;5049608;28;20053;-87
2022/01/02 12:26:06;;;;;;;7.82;1.58;;;11.30;99.90;;;;;;5032525;28;20089;-81
2022/01/02 12:28:50;;;;;;;11.65;2.67;;;11.30;99.90;;;;;;5032292;28;20099;-87
2022/01/02 12:31:18;;;;;;;4.95;1.83;;;11.30;99.90;;;;;;5032370;28;20049;-81
2022/01/02 12:33:45;;;;;;;7.25;1.73;;;11.20;99.90;;;;;;5032309;28;20049;-86
2022/01/02 12:36:18;;;;;;;7.00;2.20;;;11.20;99.90;;;;;;5031685;28;20049;-86
2022/01/02 12:39:06;;;;;;;7.90;1.88;;;11.20;99.90;;;;;;5032225;28;20041;-85
2022/01/02 12:41:34;;;;;;;8.10;1.67;;;11.20;99.90;;;;;;5032322;28;20052;-81
2022/01/02 12:44:08;;;;;;;9.55;1.42;;;11.20;99.90;;;;;;5015979;28;20541;-88
2022/01/02 12:46:34;;;;;;;11.98;1.65;;;11.20;99.90;;;;;;5015589;28;20497;-82
2022/01/02 12:49:01;;;;;;;9.93;2.00;;;11.20;99.90;;;;;;5032120;28;20136;-87
2022/01/02 12:51:32;;;;;;;8.40;1.67;;;11.10;99.90;;;;;;5016034;28;20128;-87
2022/01/02 12:54:08;;;;;;;6.85;2.50;;;11.10;99.90;;;;;;5015517;28;20041;-81
2022/01/02 12:56:41;;;;;;;9.20;2.30;;;11.10;99.90;;;;;;5032041;28;20044;-79